Time;durP1;ratioP1;P1;durP2;ratioP2;P2;SDS_P1;SDS_P2;PMS_P1;PMS_P2;Temp;Humidity;BMP_temperature;BMP_pressure;BME280_temperature;BME280_humidity;BME280_pressure;Samples;Min_cycle;Max_cycle;Signal;HPM_P1;HPM_P2
2024/01/08 00:00:22;;;;;;;11.50;7.03;;;;;;;-2.86;100.00;102551.00;10460587;28;20131;-81
2024/01/08 00:05:22;;;;;;;18.47;8.47;;;;;;;-2.89;100.00;102554.78;10462956;28;20098;-81
2024/01/08 00:10:23;;;;;;;11.17;6.43;;;;;;;-2.91;100.00;102548.53;10484431;28;20040;-82
2024/01/08 00:15:23;;;;;;;10.83;7.07;;;;;;;-2.92;100.00;102552.78;10463388;28;20039;-80
2024/01/08 00:20:24;;;;;;;13.80;8.53;;;;;;;-2.93;100.00;102555.13;10474967;28;20499;-79
2024/01/08 00:25:24;;;;;;;9.30;7.20;;;;;;;-2.98;100.00;102550.31;10467423;28;20071;-81
2024/01/08 00:30:25;;;;;;;7.37;5.80;;;;;;;-3.06;100.00;102558.66;10448048;28;20464;-81
2024/01/08 00:35:25;;;;;;;17.20;6.27;;;;;;;-3.08;100.00;102565.22;10430446;28;20044;-81
2024/01/08 00:40:26;;;;;;;11.73;7.90;;;;;;;-3.09;100.00;102576.19;10411615;28;20469;-81
2024/01/08 00:45:27;;;;;;;11.83;7.23;;;;;;;-3.09;100.00;102576.19;10468601;28;20563;-80
2024/01/08 00:50:27;;;;;;;10.03;5.60;;;;;;;-3.11;100.00;102563.19;10433439;28;20045;-81
2024/01/08 00:55:28;;;;;;;8.40;5.67;;;;;;;-3.15;100.00;102568.66;10452547;28;20959;-80
2024/01/08 01:00:30;;;;;;;9.30;5.13;;;;;;;-3.15;100.00;102571.22;10423155;28;20622;-80
2024/01/08 01:05:31;;;;;;;13.25;5.75;;;;;;;-3.18;100.00;102570.81;10407053;28;20068;-80
2024/01/08 01:10:31;;;;;;;8.97;3.97;;;;;;;-3.18;100.00;102575.94;10416364;28;20129;-80
2024/01/08 01:15:32;;;;;;;9.27;5.10;;;;;;;-3.19;100.00;102581.78;10387294;28;20069;-80
2024/01/08 01:20:32;;;;;;;13.30;5.00;;;;;;;-3.17;100.00;102587.09;10433300;28;20411;-80
2024/01/08 01:25:32;;;;;;;6.03;3.80;;;;;;;-3.19;100.00;102591.09;10407852;28;20053;-80
2024/01/08 01:30:33;;;;;;;7.80;5.03;;;;;;;-3.21;100.00;102593.47;10405709;28;20557;-80
2024/01/08 01:35:33;;;;;;;9.70;4.67;;;;;;;-3.19;100.00;102599.72;10402004;28;20036;-80
2024/01/08 01:40:34;;;;;;;11.63;6.77;;;;;;;-3.19;100.00;102598.78;10401607;28;20121;-80
2024/01/08 01:45:34;;;;;;;6.50;4.30;;;;;;;-3.19;100.00;102603.88;10403723;28;20532;-83
2024/01/08 01:50:35;;;;;;;8.33;4.30;;;;;;;-3.22;100.00;102608.63;10446370;28;20057;-81
2024/01/08 01:55:35;;;;;;;8.17;4.90;;;;;;;-3.22;100.00;102603.50;10403161;28;20379;-81
2024/01/08 02:00:36;;;;;;;7.47;4.90;;;;;;;-3.25;100.00;102612.63;10417421;28;20121;-81
2024/01/08 02:05:36;;;;;;;8.17;3.97;;;;;;;-3.25;100.00;102609.16;10402095;28;20037;-81
2024/01/08 02:10:40;;;;;;;8.20;5.00;;;;;;;-3.27;100.00;102606.38;10399680;28;20132;-80
2024/01/08 02:15:40;;;;;;;9.38;4.82;;;;;;;-3.33;100.00;102610.69;10400078;28;20492;-81
2024/01/08 02:20:41;;;;;;;7.17;3.97;;;;;;;-3.27;100.00;102608.03;10418135;28;20128;-81
2024/01/08 02:25:41;;;;;;;8.43;4.77;;;;;;;-3.30;100.00;102611.09;10415905;28;20132;-82
2024/01/08 02:30:42;;;;;;;10.13;5.80;;;;;;;-3.28;100.00;102617.34;10403907;28;20572;-82
2024/01/08 02:35:42;;;;;;;6.40;3.60;;;;;;;-3.31;100.00;102623.72;10402375;28;20040;-81
2024/01/08 02:40:43;;;;;;;7.23;4.77;;;;;;;-3.38;100.00;102616.84;10402015;28;20041;-82
2024/01/08 02:45:46;;;;;;;7.38;4.38;;;;;;;-3.45;100.00;102616.75;10408397;28;20056;-81
2024/01/08 02:50:46;;;;;;;6.70;4.27;;;;;;;-3.55;100.00;102623.22;10429225;28;20044;-80
2024/01/08 02:55:47;;;;;;;6.77;5.03;;;;;;;-3.62;100.00;102640.16;10401666;28;20175;-80
2024/01/08 03:00:47;;;;;;;5.77;3.10;;;;;;;-3.80;100.00;102643.72;10399997;28;20144;-81
2024/01/08 03:05:48;;;;;;;7.43;5.17;;;;;;;-4.18;100.00;102636.22;10422390;28;20106;-82
2024/01/08 03:10:48;;;;;;;5.77;3.90;;;;;;;-4.45;100.00;102643.63;10438647;28;20044;-81
2024/01/08 03:15:49;;;;;;;7.00;4.43;;;;;;;-4.63;100.00;102640.41;10426678;28;20125;-82
2024/01/08 03:20:49;;;;;;;6.80;4.70;;;;;;;-4.73;100.00;102648.44;10411658;28;20144;-82
2024/01/08 03:25:50;;;;;;;6.60;3.80;;;;;;;-4.70;100.00;102641.91;10434356;28;20129;-82
2024/01/08 03:30:50;;;;;;;13.07;6.93;;;;;;;-4.48;100.00;102648.31;10421192;28;20129;-82
2024/01/08 03:35:51;;;;;;;12.33;7.60;;;;;;;-4.34;100.00;102639.97;10421982;28;20132;-81
2024/01/08 03:40:51;;;;;;;10.93;8.30;;;;;;;-4.21;100.00;102651.13;10404841;28;20481;-80
2024/01/08 03:45:52;;;;;;;12.97;6.47;;;;;;;-4.14;100.00;102643.59;10416312;28;20120;-81
2024/01/08 03:50:52;;;;;;;10.07;5.90;;;;;;;-4.10;100.00;102636.31;10411033;28;20081;-81
2024/01/08 03:55:53;;;;;;;7.23;5.33;;;;;;;-4.06;100.00;102649.75;10414119;28;20045;-81
2024/01/08 04:00:53;;;;;;;10.53;6.27;;;;;;;-4.04;100.00;102643.19;10453852;28;20457;-81
2024/01/08 04:05:54;;;;;;;9.00;5.00;;;;;;;-4.00;100.00;102653.13;10422034;28;20041;-81
2024/01/08 04:10:55;;;;;;;9.30;3.25;;;;;;;-3.99;100.00;102643.81;10425783;28;20056;-81
2024/01/08 04:15:56;;;;;;;8.93;5.83;;;;;;;-4.03;100.00;102652.72;10455029;28;20061;-81
2024/01/08 04:20:56;;;;;;;10.60;6.90;;;;;;;-4.00;100.00;102644.50;10446431;28;20090;-82
2024/01/08 04:25:56;;;;;;;8.13;5.90;;;;;;;-3.99;100.00;102639.63;10465792;28;20178;-84
2024/01/08 04:30:57;;;;;;;6.07;4.57;;;;;;;-4.01;100.00;102652.91;10456346;28;20455;-82
2024/01/08 04:35:57;;;;;;;11.13;6.90;;;;;;;-3.99;100.00;102652.41;10417004;28;20068;-81
2024/01/08 04:40:58;;;;;;;14.27;7.07;;;;;;;-3.96;100.00;102640.75;10437529;28;20039;-80
2024/01/08 04:45:58;;;;;;;9.23;7.47;;;;;;;-3.94;100.00;102636.75;10455774;28;20130;-82
2024/01/08 04:50:59;;;;;;;7.80;5.57;;;;;;;-3.93;100.00;102642.06;10479623;28;20049;-80
2024/01/08 04:56:00;;;;;;;8.33;5.13;;;;;;;-3.90;100.00;102634.81;10460944;28;20132;-80
2024/01/08 05:01:00;;;;;;;13.97;6.43;;;;;;;-3.88;100.00;102635.94;10466807;28;20039;-81
2024/01/08 05:06:01;;;;;;;8.77;5.67;;;;;;;-3.91;100.00;102630.41;10476788;28;20051;-80
2024/01/08 05:11:01;;;;;;;9.20;5.87;;;;;;;-3.92;100.00;102640.44;10477625;28;20140;-79
2024/01/08 05:16:02;;;;;;;7.40;3.97;;;;;;;-3.92;100.00;102640.44;10459141;28;20374;-79
2024/01/08 05:21:04;;;;;;;15.73;8.53;;;;;;;-3.92;100.00;102637.88;10415492;28;20480;-80
2024/01/08 05:26:04;;;;;;;8.77;5.30;;;;;;;-3.89;100.00;102643.41;10447499;28;20063;-79
2024/01/08 05:31:05;;;;;;;11.73;7.27;;;;;;;-3.86;100.00;102634.50;10443050;28;20041;-79
2024/01/08 05:36:06;;;;;;;10.83;7.43;;;;;;;-3.89;100.00;102633.19;10445401;28;20037;-81
2024/01/08 05:41:07;;;;;;;11.67;5.67;;;;;;;-3.92;100.00;102626.00;10442300;28;20406;-79
2024/01/08 05:46:07;;;;;;;10.37;5.40;;;;;;;-3.90;100.00;102629.69;10461817;28;20075;-80
2024/01/08 05:51:08;;;;;;;9.70;4.60;;;;;;;-3.89;100.00;102616.19;10471186;28;20120;-80
2024/01/08 05:56:08;;;;;;;13.43;6.83;;;;;;;-3.88;100.00;102618.03;10453244;28;20887;-81
2024/01/08 06:01:09;;;;;;;10.50;5.70;;;;;;;-3.89;100.00;102613.63;10452100;28;20041;-81
2024/01/08 06:06:12;;;;;;;6.73;4.47;;;;;;;-3.88;100.00;102623.13;10402024;28;20057;-82
2024/01/08 06:11:13;;;;;;;14.90;8.05;;;;;;;-3.84;100.00;102627.03;10422608;28;20124;-82
2024/01/08 06:16:15;;;;;;;14.63;6.80;;;;;;;-3.83;100.00;102632.34;10460838;28;20473;-82
2024/01/08 06:21:16;;;;;;;11.18;7.60;;;;;;;-3.80;100.00;102628.34;10469467;28;20063;-82
2024/01/08 06:26:16;;;;;;;13.00;6.83;;;;;;;-3.73;100.00;102621.72;10446341;28;20489;-82
2024/01/08 06:31:17;;;;;;;11.57;6.50;;;;;;;-3.70;100.00;102610.94;10425813;28;20064;-82
2024/01/08 06:36:17;;;;;;;12.23;7.20;;;;;;;-3.69;100.00;102616.28;10472341;28;20040;-81
2024/01/08 06:41:18;;;;;;;10.93;7.03;;;;;;;-3.68;100.00;102614.63;10445025;28;20488;-82
2024/01/08 06:46:18;;;;;;;10.43;8.70;;;;;;;-3.70;100.00;102614.44;10449634;28;20161;-81
2024/01/08 06:51:19;;;;;;;15.27;7.53;;;;;;;-3.71;100.00;102620.28;10429730;28;20128;-81
2024/01/08 06:56:20;;;;;;;19.00;9.32;;;;;;;-3.68;100.00;102619.75;10440507;28;20136;-81
2024/01/08 07:01:20;;;;;;;15.50;8.93;;;;;;;-3.66;100.00;102614.84;10481964;28;20060;-81
2024/01/08 07:06:21;;;;;;;14.77;8.37;;;;;;;-3.64;100.00;102614.31;10448683;28;20124;-79
2024/01/08 07:11:22;;;;;;;9.77;4.67;;;;;;;-3.60;100.00;102619.13;10442665;28;20098;-79
2024/01/08 07:16:23;;;;;;;13.85;7.90;;;;;;;-3.59;100.00;102620.97;10458985;28;20033;-80
2024/01/08 07:21:24;;;;;;;11.83;8.37;;;;;;;-3.55;100.00;102622.31;10476836;28;20177;-79
2024/01/08 07:26:24;;;;;;;12.20;7.07;;;;;;;-3.50;100.00;102621.28;10442021;28;20258;-79
2024/01/08 07:31:25;;;;;;;12.67;8.23;;;;;;;-3.46;100.00;102620.03;10448712;28;20399;-81
2024/01/08 07:36:25;;;;;;;13.57;7.97;;;;;;;-3.43;100.00;102620.44;10446877;28;22316;-78
2024/01/08 07:41:27;;;;;;;22.07;12.03;;;;;;;-3.42;100.00;102615.53;10441201;28;20619;-80
2024/01/08 07:46:27;;;;;;;10.15;8.38;;;;;;;-3.43;100.00;102623.94;10401974;28;20480;-79
2024/01/08 07:51:28;;;;;;;10.93;7.53;;;;;;;-3.44;100.00;102627.22;10376693;28;20124;-79
2024/01/08 07:56:29;;;;;;;12.50;8.23;;;;;;;-3.40;100.00;102624.34;10405934;28;20046;-79
2024/01/08 08:01:29;;;;;;;13.33;9.73;;;;;;;-3.42;100.00;102636.03;10417466;28;20125;-79
2024/01/08 08:06:30;;;;;;;12.90;7.43;;;;;;;-3.38;100.00;102639.00;10412055;28;20041;-82
2024/01/08 08:11:31;;;;;;;10.37;7.43;;;;;;;-3.35;100.00;102649.63;10427154;28;20545;-81
2024/01/08 08:16:32;;;;;;;23.00;9.27;;;;;;;-3.32;100.00;102656.06;10443096;28;20402;-81
2024/01/08 08:21:33;;;;;;;12.45;8.32;;;;;;;-3.30;100.00;102644.38;10453853;28;20044;-82
2024/01/08 08:26:33;;;;;;;13.83;10.60;;;;;;;-3.39;100.00;102653.41;10442696;28;20048;-79
2024/01/08 08:31:35;;;;;;;15.47;8.47;;;;;;;-3.45;100.00;102656.09;10406835;28;20445;-80
2024/01/08 08:36:39;;;;;;;13.20;7.28;;;;;;;-3.54;100.00;102672.78;10406890;28;20120;-83
2024/01/08 08:41:39;;;;;;;27.77;10.38;;;;;;;-3.60;100.00;102664.31;10441721;28;20048;-81
2024/01/08 08:46:40;;;;;;;19.83;9.43;;;;;;;-3.63;100.00;102669.00;10467928;28;20560;-81
2024/01/08 08:51:40;;;;;;;15.97;10.63;;;;;;;-3.49;100.00;102663.16;10470526;28;20124;-80
2024/01/08 08:56:41;;;;;;;13.13;8.23;;;;;;;-3.38;100.00;102664.59;10443602;28;20040;-79
2024/01/08 09:01:41;;;;;;;17.43;10.23;;;;;;;-3.31;100.00;102660.47;10457820;28;20061;-79
2024/01/08 09:06:42;;;;;;;14.47;8.97;;;;;;;-3.22;100.00;102654.72;10463158;28;20056;-79
2024/01/08 09:11:46;;;;;;;23.30;9.80;;;;;;;-3.12;100.00;102661.28;10448663;28;20090;-80
2024/01/08 09:16:46;;;;;;;14.38;7.95;;;;;;;-3.02;100.00;102668.50;10475182;28;20102;-81
2024/01/08 09:21:48;;;;;;;15.93;8.60;;;;;;;-2.88;100.00;102665.19;10441782;28;20102;-80
2024/01/08 09:26:48;;;;;;;15.35;9.13;;;;;;;-2.83;100.00;102661.59;10443487;28;20040;-82
2024/01/08 09:31:49;;;;;;;15.63;10.77;;;;;;;-2.87;100.00;102668.66;10463543;28;20045;-80
2024/01/08 09:36:50;;;;;;;12.47;9.77;;;;;;;-2.91;100.00;102685.28;10446653;28;20162;-82
2024/01/08 09:41:51;;;;;;;18.15;7.93;;;;;;;-2.93;100.00;102680.69;10434751;28;20045;-82
2024/01/08 09:46:53;;;;;;;15.50;8.70;;;;;;;-2.92;100.00;102683.47;10455187;28;20492;-82
2024/01/08 09:51:53;;;;;;;9.07;6.23;;;;;;;-2.94;100.00;102679.78;10439087;28;20127;-81
2024/01/08 09:56:54;;;;;;;12.40;9.57;;;;;;;-2.85;100.00;102680.03;10445469;28;20049;-81
2024/01/08 10:01:56;;;;;;;15.10;10.35;;;;;;;-2.62;100.00;102679.53;10442593;28;20052;-82
2024/01/08 10:07:06;;;;;;;13.45;9.85;;;;;;;-2.56;100.00;102680.34;10466065;28;20037;-81
2024/01/08 10:12:07;;;;;;;15.57;9.00;;;;;;;-2.64;100.00;102671.66;10443939;28;20043;-80
2024/01/08 10:17:08;;;;;;;15.70;8.45;;;;;;;-2.73;100.00;102668.81;10446849;28;20025;-80
2024/01/08 10:22:12;;;;;;;20.13;11.87;;;;;;;-2.83;100.00;102670.91;10406915;28;20117;-80
2024/01/08 10:27:13;;;;;;;14.85;9.27;;;;;;;-2.87;100.00;102666.09;10435012;28;20075;-80
2024/01/08 10:32:13;;;;;;;12.77;8.47;;;;;;;-2.77;100.00;102665.69;10457997;28;20051;-80
2024/01/08 10:37:13;;;;;;;17.07;7.67;;;;;;;-2.50;100.00;102652.91;10397519;28;20052;-80
2024/01/08 10:42:14;;;;;;;14.83;7.33;;;;;;;-2.37;100.00;102652.88;10423275;28;20045;-80
2024/01/08 10:47:17;;;;;;;17.67;8.33;;;;;;;-2.42;100.00;102649.69;10448570;28;20476;-81
2024/01/08 10:52:20;;;;;;;12.13;7.65;;;;;;;-2.44;100.00;102648.59;10443053;28;20091;-81
2024/01/08 10:57:21;;;;;;;9.50;7.18;;;;;;;-2.49;100.00;102647.06;10457254;28;20056;-81
2024/01/08 11:02:22;;;;;;;7.97;5.65;;;;;;;-0.48;100.00;102641.81;10397773;28;20052;-80
2024/01/08 11:07:23;;;;;;;7.10;4.97;;;;;;;-0.22;100.00;102682.63;10440149;28;20037;-80
2024/01/08 11:12:23;;;;;;;7.90;4.67;;;;;;;-0.95;100.00;102692.78;10458141;28;20068;-80
2024/01/08 11:17:24;;;;;;;9.73;4.80;;;;;;;-1.80;100.00;102703.72;10412801;28;20124;-80
2024/01/08 11:22:24;;;;;;;7.93;4.13;;;;;;;-2.34;100.00;102702.00;10423608;28;20457;-80
2024/01/08 11:27:25;;;;;;;9.00;4.33;;;;;;;-2.58;100.00;102703.22;10422173;28;20037;-80
2024/01/08 11:32:59;;;;;;;7.77;4.30;;;;;;;-2.59;100.00;102693.69;10412297;28;20038;-80
2024/01/08 11:38:23;;;;;;;7.90;4.13;;;;;;;-2.07;100.00;102711.41;10455925;28;20094;-80
2024/01/08 11:43:24;;;;;;;5.63;2.97;;;;;;;-1.54;100.00;102716.34;10441232;28;20033;-80
2024/01/08 11:48:24;;;;;;;4.90;3.07;;;;;;;-1.59;100.00;102727.69;10420564;28;20038;-80
2024/01/08 11:53:28;;;;;;;5.60;2.50;;;;;;;-1.81;100.00;102747.16;10449842;28;20049;-79
2024/01/08 11:58:29;;;;;;;4.50;3.10;;;;;;;-1.83;100.00;102740.91;10429899;28;20037;-81
2024/01/08 12:03:41;;;;;;;3.23;2.40;;;;;;;-1.72;100.00;102732.00;10398072;28;20125;-79
2024/01/08 12:08:42;;;;;;;6.32;2.95;;;;;;;-2.01;100.00;102739.47;10450138;28;20037;-77
2024/01/08 12:13:42;;;;;;;5.50;2.47;;;;;;;-2.14;100.00;102742.13;10464881;28;20060;-79
2024/01/08 12:18:43;;;;;;;3.83;2.63;;;;;;;-1.99;100.00;102751.78;10446723;28;20129;-79
2024/01/08 12:23:44;;;;;;;3.20;1.60;;;;;;;-1.63;100.00;102744.38;10428137;28;20404;-80
2024/01/08 12:28:44;;;;;;;5.93;3.07;;;;;;;-1.65;100.00;102747.47;10413477;28;20050;-82
2024/01/08 12:33:45;;;;;;;5.87;2.40;;;;;;;-1.74;100.00;102738.59;10471000;28;20171;-81
2024/01/08 12:38:45;;;;;;;6.37;3.27;;;;;;;-1.64;100.00;102739.97;10470123;28;20127;-79
2024/01/08 12:43:47;;;;;;;3.83;2.37;;;;;;;-1.90;100.00;102746.00;10469134;28;20170;-82
2024/01/08 12:48:47;;;;;;;9.23;2.95;;;;;;;-2.03;100.00;102754.69;10472680;28;20113;-80
2024/01/08 12:53:48;;;;;;;3.87;2.97;;;;;;;-2.19;100.00;102746.66;10466990;28;20033;-80
2024/01/08 12:58:48;;;;;;;6.13;2.90;;;;;;;-2.29;100.00;102746.19;10460679;28;20118;-80
2024/01/08 13:03:49;;;;;;;8.13;3.47;;;;;;;-2.27;100.00;102750.81;10476430;28;20052;-79
2024/01/08 13:08:50;;;;;;;5.13;2.60;;;;;;;-2.10;100.00;102749.50;10473671;28;20048;-80
2024/01/08 13:13:51;;;;;;;8.00;4.20;;;;;;;-2.12;100.00;102749.28;10418623;28;20067;-81
2024/01/08 13:18:51;;;;;;;3.67;1.55;;;;;;;-2.30;100.00;102752.97;10413090;28;20122;-81
2024/01/08 13:23:52;;;;;;;6.67;3.20;;;;;;;-2.30;100.00;102750.41;10409223;28;20110;-81
2024/01/08 13:28:53;;;;;;;6.30;3.00;;;;;;;-2.29;100.00;102734.28;10434972;28;20496;-80
2024/01/08 13:33:53;;;;;;;5.57;3.33;;;;;;;-2.39;100.00;102762.03;10460392;28;20060;-79
2024/01/08 13:38:54;;;;;;;5.03;2.47;;;;;;;-2.34;100.00;102762.63;10461290;28;20449;-80
2024/01/08 13:43:54;;;;;;;3.60;2.47;;;;;;;-2.29;100.00;102754.81;10461897;28;20132;-79
2024/01/08 13:48:55;;;;;;;7.80;3.00;;;;;;;-2.25;100.00;102754.50;10458172;28;20619;-79
2024/01/08 13:53:55;;;;;;;5.03;3.10;;;;;;;-1.61;100.00;102743.66;10473584;28;20067;-82
2024/01/08 13:58:56;;;;;;;4.00;2.13;;;;;;;-1.75;100.00;102765.94;10440914;28;20045;-82
2024/01/08 14:03:57;;;;;;;4.03;2.60;;;;;;;-2.19;100.00;102754.34;10430053;28;20048;-79
2024/01/08 14:08:57;;;;;;;8.10;4.03;;;;;;;-2.42;100.00;102766.78;10437429;28;20705;-79
2024/01/08 14:13:59;;;;;;;9.30;4.13;;;;;;;-2.59;100.00;102767.13;10439570;28;20095;-79
2024/01/08 14:19:03;;;;;;;5.47;2.80;;;;;;;-2.73;100.00;102765.31;10421825;28;20045;-79
2024/01/08 14:24:03;;;;;;;3.85;2.25;;;;;;;-2.93;100.00;102780.63;10427316;28;20106;-79
2024/01/08 14:29:05;;;;;;;5.43;3.43;;;;;;;-3.16;100.00;102775.91;10437510;28;20539;-79
2024/01/08 14:34:06;;;;;;;;;;;;;;;-3.32;100.00;102778.09;10443280;28;20441;-77
2024/01/08 14:39:07;;;;;;;;;;;;;;;-3.45;100.00;102776.44;10449637;28;20003;-78
2024/01/08 14:44:07;;;;;;;;;;;;;;;-3.49;100.00;102786.97;10431980;28;19928;-79
2024/01/08 14:49:07;;;;;;;;;;;;;;;-3.56;100.00;102777.53;10437545;28;19920;-79
2024/01/08 14:54:08;;;;;;;;;;;;;;;-3.65;100.00;102778.84;10441868;28;20122;-79
2024/01/08 14:59:09;;;;;;;;;;;;;;;-3.67;100.00;102775.16;10424608;28;20322;-80
2024/01/08 15:04:09;;;;;;;;;;;;;;;-3.72;100.00;102778.75;10440334;28;19963;-80
2024/01/08 15:09:10;;;;;;;;;;;;;;;-3.76;100.00;102791.84;10422179;28;19927;-79
2024/01/08 15:14:10;;;;;;;;;;;;;;;-3.88;100.00;102784.31;10415678;28;19921;-79
2024/01/08 15:19:11;;;;;;;;;;;;;;;-4.03;100.00;102787.34;10433305;28;19986;-78
2024/01/08 15:24:12;;;;;;;;;;;;;;;-4.11;100.00;102780.25;10440211;28;19970;-78
2024/01/08 15:29:13;;;;;;;;;;;;;;;-4.25;100.00;102798.84;10440042;28;19924;-78
2024/01/08 15:34:13;;;;;;;;;;;;;;;-4.31;100.00;102798.91;10446198;28;20515;-79
2024/01/08 15:39:16;;;;;;;;;;;;;;;-4.39;100.00;102802.97;10443760;28;19924;-79
2024/01/08 15:44:16;;;;;;;;;;;;;;;-4.49;100.00;102803.31;10441466;28;19924;-80
2024/01/08 15:49:16;;;;;;;;;;;;;;;-4.58;100.00;102814.81;10446850;28;19921;-80
2024/01/08 15:54:17;;;;;;;;;;;;;;;-4.71;100.00;102809.63;10449680;28;19928;-81
2024/01/08 15:59:17;;;;;;;;;;;;;;;-4.77;100.00;102824.09;10451496;28;19928;-79
2024/01/08 16:04:18;;;;;;;;;;;;;;;-4.83;100.00;102823.25;10422704;28;19925;-80
2024/01/08 16:09:18;;;;;;;;;;;;;;;-4.90;100.00;102826.56;10442606;28;19920;-80
2024/01/08 16:14:18;;;;;;;;;;;;;;;-4.76;100.00;102829.41;10453164;28;20351;-80
2024/01/08 16:19:19;;;;;;;;;;;;;;;-4.67;100.00;102841.63;10436521;28;20383;-80
2024/01/08 16:24:19;;;;;;;;;;;;;;;-4.85;100.00;102847.66;10453767;28;19935;-80
2024/01/08 16:29:19;;;;;;;;;;;;;;;-5.04;100.00;102842.50;10461225;28;20035;-79
2024/01/08 16:34:20;;;;;;;;;;;;;;;-5.02;100.00;102843.63;10467286;28;20085;-80
2024/01/08 16:39:20;;;;;;;;;;;;;;;-5.01;100.00;102856.59;10438467;28;20059;-80
2024/01/08 16:44:20;;;;;;;;;;;;;;;-5.09;100.00;102851.13;10433119;28;20007;-79
2024/01/08 16:49:20;;;;;;;;;;;;;;;-5.03;100.00;102855.47;10415373;28;19921;-79
2024/01/08 16:54:21;;;;;;;;;;;;;;;-5.09;100.00;102849.47;10402551;28;19921;-79
2024/01/08 16:59:21;;;;;;;;;;;;;;;-5.24;100.00;102857.50;10434547;28;20587;-79
2024/01/08 17:04:22;;;;;;;;;;;;;;;-5.25;100.00;102866.81;10431697;28;19928;-79
2024/01/08 17:09:22;;;;;;;;;;;;;;;-5.09;100.00;102864.81;10450509;28;19920;-79
2024/01/08 17:14:22;;;;;;;;;;;;;;;-5.17;100.00;102881.59;10420169;28;19932;-79
2024/01/08 17:19:23;;;;;;;;;;;;;;;-5.25;100.00;102882.13;10436143;28;19931;-79
2024/01/08 17:24:23;;;;;;;;;;;;;;;-5.27;100.00;102890.25;10435003;28;20375;-79
2024/01/08 17:29:23;;;;;;;;;;;;;;;-5.38;100.00;102894.75;10428706;28;20472;-80
2024/01/08 17:34:24;;;;;;;;;;;;;;;-5.36;100.00;102898.44;10444492;28;19967;-79
2024/01/08 17:39:24;;;;;;;;;;;;;;;-5.53;100.00;102893.47;10473179;28;20068;-79
2024/01/08 17:44:25;;;;;;;;;;;;;;;-5.56;100.00;102898.16;10430186;28;20359;-79
2024/01/08 17:49:25;;;;;;;;;;;;;;;-5.73;100.00;102900.78;10437210;28;20344;-79
2024/01/08 17:54:26;;;;;;;;;;;;;;;-5.82;100.00;102899.44;10446761;28;19921;-79
2024/01/08 17:59:27;;;;;;;;;;;;;;;-5.87;100.00;102905.50;10451190;28;19921;-79
2024/01/08 18:04:27;;;;;;;;;;;;;;;-5.79;100.00;102908.50;10446575;28;19928;-79
2024/01/08 18:09:28;;;;;;;;;;;;;;;-5.64;100.00;102916.53;10425979;28;19974;-79
2024/01/08 18:14:28;;;;;;;;;;;;;;;-5.51;100.00;102907.41;10461762;28;20360;-80
2024/01/08 18:19:29;;;;;;;;;;;;;;;-5.63;100.00;102931.13;10456184;28;19946;-80
2024/01/08 18:24:29;;;;;;;;;;;;;;;-5.53;100.00;102928.28;10442079;28;19921;-81
2024/01/08 18:29:30;;;;;;;;;;;;;;;-5.48;100.00;102937.53;10434752;28;19920;-80
2024/01/08 18:34:30;;;;;;;;;;;;;;;-5.62;100.00;102931.34;10440131;28;19920;-81
2024/01/08 18:44:17;;;;;;;5.38;4.22;;;;;;;-5.71;100.00;102949.50;10518866;27;20980;-78
2024/01/08 18:49:18;;;;;;;5.00;3.83;;;;;;;-5.94;100.00;102947.06;10515066;28;20094;-78
2024/01/08 18:54:19;;;;;;;;;;;;;;;-5.99;100.00;102940.34;10493090;28;20083;-78
2024/01/08 18:59:19;;;;;;;6.18;3.25;;;;;;;-6.09;100.00;102940.63;10522073;27;20004;-78
2024/01/08 19:04:20;;;;;;;7.07;4.20;;;;;;;-6.05;100.00;102951.53;10516864;27;20052;-78
2024/01/08 19:09:23;;;;;;;8.83;3.37;;;;;;;-5.80;100.00;102950.00;10555687;27;20035;-78
2024/01/08 19:14:26;;;;;;;6.78;3.90;;;;;;;-5.69;100.00;102964.31;10537290;27;20060;-78
2024/01/08 19:19:27;;;;;;;5.65;3.03;;;;;;;-5.70;100.00;102961.56;10491271;28;20041;-77
2024/01/08 19:24:29;;;;;;;6.32;3.65;;;;;;;-5.73;100.00;102964.56;10505205;28;20064;-78
2024/01/08 19:29:30;;;;;;;21.83;4.57;;;;;;;-5.76;100.00;102967.59;10551504;27;20044;-79
2024/01/08 19:34:30;;;;;;;6.63;4.90;;;;;;;-5.85;100.00;102960.22;10544558;27;20036;-80
2024/01/08 19:39:31;;;;;;;7.50;3.33;;;;;;;-5.78;100.00;102968.06;10506614;28;20047;-81
2024/01/08 19:44:31;;;;;;;4.83;3.07;;;;;;;-5.96;100.00;102973.97;10510041;28;20043;-80
2024/01/08 19:49:32;;;;;;;7.67;3.97;;;;;;;-6.02;100.00;102979.09;10514848;28;20036;-80
2024/01/08 19:54:33;;;;;;;8.17;4.60;;;;;;;-6.11;100.00;102972.63;10492821;28;20124;-79
2024/01/08 19:59:33;;;;;;;5.20;3.17;;;;;;;-6.12;100.00;102970.78;10458881;28;20123;-80
2024/01/08 20:04:34;;;;;;;9.13;3.83;;;;;;;-6.05;100.00;102973.53;10480364;28;20053;-80
2024/01/08 20:09:35;;;;;;;5.10;3.00;;;;;;;-6.13;100.00;102958.72;10477307;28;20098;-80
2024/01/08 20:14:38;;;;;;;8.07;4.03;;;;;;;-6.03;100.00;102971.22;10484365;28;20123;-80
2024/01/08 20:19:39;;;;;;;11.13;4.78;;;;;;;-6.18;100.00;102957.13;10457521;28;20477;-79
2024/01/08 20:24:40;;;;;;;5.83;4.07;;;;;;;-6.21;100.00;102965.25;10480164;28;20135;-81
2024/01/08 20:29:41;;;;;;;9.52;3.40;;;;;;;-6.19;100.00;102963.88;10464398;28;20271;-80
2024/01/08 20:34:42;;;;;;;7.83;4.27;;;;;;;-6.12;100.00;102955.47;10481912;28;20040;-79
2024/01/08 20:39:42;;;;;;;4.67;4.10;;;;;;;-6.16;100.00;102960.81;10482694;28;20097;-78
2024/01/08 20:44:43;;;;;;;6.57;4.00;;;;;;;-6.15;100.00;102966.16;10474306;28;20032;-80
2024/01/08 20:49:43;;;;;;;6.37;3.27;;;;;;;-6.23;100.00;102964.13;10479017;28;20048;-81
2024/01/08 20:54:44;;;;;;;8.33;3.77;;;;;;;-6.24;100.00;102965.72;10476017;28;20036;-81
2024/01/08 20:59:45;;;;;;;5.85;4.30;;;;;;;-6.17;100.00;102971.72;10484458;28;20068;-79
2024/01/08 21:04:46;;;;;;;4.00;2.10;;;;;;;-6.14;100.00;102968.03;10468935;28;20058;-81
2024/01/08 21:09:47;;;;;;;;;;;;;;;-6.14;100.00;102965.47;10478954;28;20036;-78
2024/01/08 21:14:47;;;;;;;7.47;5.20;;;;;;;-6.18;100.00;102977.53;10483427;28;19928;-80
2024/01/08 21:19:48;;;;;;;6.37;4.50;;;;;;;-6.20;100.00;102967.13;10474173;28;20032;-81
2024/01/08 21:24:48;;;;;;;7.43;4.25;;;;;;;-6.28;100.00;102975.25;10492805;27;20101;-81
2024/01/08 21:29:49;;;;;;;6.67;3.93;;;;;;;-6.30;100.00;102980.09;10479110;28;20437;-81
2024/01/08 21:34:49;;;;;;;9.00;5.20;;;;;;;-6.20;100.00;102982.41;10481720;28;20041;-81
2024/01/08 21:39:50;;;;;;;9.50;4.37;;;;;;;-6.48;100.00;102978.28;10480182;28;20123;-81
2024/01/08 21:44:50;;;;;;;8.40;4.13;;;;;;;-6.46;100.00;102983.59;10484722;27;20116;-81
2024/01/08 21:49:51;;;;;;;8.70;5.43;;;;;;;-6.47;100.00;102984.31;10461169;28;20037;-81
2024/01/08 21:54:52;;;;;;;6.80;4.20;;;;;;;-6.37;100.00;102984.97;10483879;28;20438;-81
2024/01/08 21:59:52;;;;;;;5.73;3.30;;;;;;;-6.51;100.00;102973.66;10458887;28;20093;-81
2024/01/08 22:04:53;;;;;;;6.33;4.33;;;;;;;-6.44;100.00;102984.75;10481185;28;20047;-81
2024/01/08 22:09:53;;;;;;;11.30;3.83;;;;;;;-6.60;100.00;102992.66;10504639;27;20036;-81
2024/01/08 22:14:54;;;;;;;8.27;3.33;;;;;;;-6.62;100.00;102995.69;10518253;27;20040;-81
2024/01/08 22:19:54;;;;;;;5.50;4.37;;;;;;;-6.70;100.00;102994.50;10522312;27;20721;-82
2024/01/08 22:24:55;;;;;;;4.87;2.97;;;;;;;-6.66;100.00;102997.78;10516350;27;20101;-82
2024/01/08 22:29:55;;;;;;;5.63;3.17;;;;;;;-6.77;100.00;102997.78;10461877;28;20123;-82
2024/01/08 22:34:56;;;;;;;7.03;3.80;;;;;;;-6.66;100.00;103005.41;10448778;28;20059;-81
2024/01/08 22:39:56;;;;;;;13.43;5.13;;;;;;;-6.68;100.00;103009.34;10479571;28;20037;-82
2024/01/08 22:44:57;;;;;;;8.43;4.90;;;;;;;-6.73;100.00;103006.78;10482472;28;20490;-82
2024/01/08 22:49:57;;;;;;;7.57;5.90;;;;;;;-6.70;100.00;102995.47;10480852;28;20033;-82
2024/01/08 22:54:58;;;;;;;6.23;3.03;;;;;;;-6.69;100.00;102992.22;10482315;28;20123;-83
2024/01/08 22:59:59;;;;;;;8.27;5.30;;;;;;;-6.59;100.00;102999.59;10479379;28;20070;-82
2024/01/08 23:05:00;;;;;;;7.80;3.95;;;;;;;-6.65;100.00;102997.06;10483327;28;20058;-82
2024/01/08 23:10:00;;;;;;;7.70;3.93;;;;;;;-6.78;100.00;102996.81;10462969;28;20166;-81